Detall de PIREP

Printer-friendly versionPDF version

[2013/01/02 09:36:00]
Flight IATA:CT1005
Pilot Number:011
Company ICAO:CAT
Aircraft Type:F28/A
PAX:85
Departing Airport: LRCK
Destination Airport: LBPD
Alternate Airport:LBSF
Online: VATSIM
Route:DIRAL UM747 VEVIN UL5 FLR UT900 SORDU UM987 WAK UN739 RUMEN
Flight Level:F290
No Slew and time accel
No pause
Crash detect
Detect pilot in Cockpit between each 30 and 45 minutes
09:36 Zero fuel Weight: 59657 Lbs, Fuel Weight: 10478 Lbs
09:36 VATSIM:LRCK 020900Z 20010KT 0600 R18/0800U FG SCT001 03/01 Q1023 BECMG 1500 BR
09:36 VATSIM:LBPD 020900Z VRB01MPS 0100 R30/0200N R12/0200N FZFG VV000 M03/M03 Q1025 NOSIG
09:37 Parking Brakes off
09:45 Take-off
09:45 Take off Weight: 69724 Lbs
09:45 Wind: 196º @ 010 Knots Heading: 004º
09:45 POS N44º 21´ 44´´ E028º 29´ 18´´
09:45 Gear Up: 159 Knots
09:45 Flaps:3 at 159 Knots
09:45 Flaps:2 at 208 Knots
09:45 Flaps:1 at 217 Knots
09:45 Flaps:0 at 232 Knots
10:00 Wind:231º@026 Knots Heading: 283º Ground Speed: 373 Knots Altitude 28028 ft
10:00 TOC
10:00 Fuel Weight: 7956 Lb
10:22 TOD
10:22 Fuel Weight: 6286 Lb
10:46 Flaps:1 at 225 Knots
10:47 Flaps:2 at 205 Knots
10:48 Flaps:3 at 181 Knots
10:48 Gear Down: 169 Knots
10:49 Flaps:4 at 159 Knots
10:49 Flaps:5 at 153 Knots
10:53 TouchDown:Rate -220 ft/min Speed: 110 Knots
10:53 VATSIM:LBPD 021000Z VRB01MPS 0100 R30/0200N R12/0175N FZFG VV000 M02/M02 Q1025 NOSIG
10:53 Land
10:53 Wind:253º@001 Knots
10:53 Heading: 306º
10:53 Flight Duration: 01:08
10:53 Landing Weight: 64609 Lbs
10:53 POS N42º 04´ 07´´ E024º 50´ 57´´
10:54 Parking brakes on
10:54 Block to Block Duration: 01:17
10:54 Final Fuel: 4528 Lbls
10:54 Spent Fuel: 5950 Lbls
10:54 Flight Length: 89 NM
10:54 TOD Land Length: 00 NM

Exportar CSV

Powered by Drupal - Modified by Danger4k